sensor_id;sensor_type;location;lat;lon;timestamp;P1;durP1;ratioP1;P2;durP2;ratioP2
4208;SDS011;36320;48.860;2.380;2022-11-15T00:02:13;6.20;;;1.00;;
4208;SDS011;36320;48.860;2.380;2022-11-15T00:04:39;5.70;;;1.00;;
4208;SDS011;36320;48.860;2.380;2022-11-15T00:07:05;6.47;;;1.50;;
4208;SDS011;36320;48.860;2.380;2022-11-15T00:09:31;6.00;;;1.00;;
4208;SDS011;36320;48.860;2.380;2022-11-15T00:11:57;10.48;;;1.48;;
4208;SDS011;36320;48.860;2.380;2022-11-15T00:14:23;7.60;;;1.23;;
4208;SDS011;36320;48.860;2.380;2022-11-15T00:16:49;6.22;;;1.13;;
4208;SDS011;36320;48.860;2.380;2022-11-15T00:19:15;5.82;;;1.00;;
4208;SDS011;36320;48.860;2.380;2022-11-15T00:21:42;6.10;;;1.25;;
4208;SDS011;36320;48.860;2.380;2022-11-15T00:24:08;8.40;;;1.20;;
4208;SDS011;36320;48.860;2.380;2022-11-15T00:26:34;5.82;;;0.90;;
4208;SDS011;36320;48.860;2.380;2022-11-15T00:29:00;7.67;;;1.20;;
4208;SDS011;36320;48.860;2.380;2022-11-15T00:31:26;6.72;;;1.10;;
4208;SDS011;36320;48.860;2.380;2022-11-15T00:33:52;5.65;;;0.82;;
4208;SDS011;36320;48.860;2.380;2022-11-15T00:36:18;5.80;;;1.03;;
4208;SDS011;36320;48.860;2.380;2022-11-15T00:38:44;5.50;;;0.80;;
4208;SDS011;36320;48.860;2.380;2022-11-15T00:41:10;8.10;;;1.60;;
4208;SDS011;36320;48.860;2.380;2022-11-15T00:43:36;8.30;;;1.20;;
4208;SDS011;36320;48.860;2.380;2022-11-15T00:46:02;6.82;;;1.20;;
4208;SDS011;36320;48.860;2.380;2022-11-15T00:48:28;7.50;;;1.73;;
4208;SDS011;36320;48.860;2.380;2022-11-15T00:50:54;6.00;;;1.00;;
4208;SDS011;36320;48.860;2.380;2022-11-15T00:53:20;6.50;;;1.30;;
4208;SDS011;36320;48.860;2.380;2022-11-15T00:55:46;6.03;;;0.90;;
4208;SDS011;36320;48.860;2.380;2022-11-15T00:58:12;6.60;;;1.00;;
4208;SDS011;36320;48.860;2.380;2022-11-15T01:00:38;6.80;;;0.90;;
4208;SDS011;36320;48.860;2.380;2022-11-15T01:03:04;6.60;;;0.90;;
4208;SDS011;36320;48.860;2.380;2022-11-15T01:05:30;5.70;;;0.90;;
4208;SDS011;36320;48.860;2.380;2022-11-15T01:07:57;5.72;;;0.90;;
4208;SDS011;36320;48.860;2.380;2022-11-15T01:10:23;5.75;;;0.90;;
4208;SDS011;36320;48.860;2.380;2022-11-15T01:12:50;6.60;;;1.10;;
4208;SDS011;36320;48.860;2.380;2022-11-15T01:15:16;8.60;;;1.00;;
4208;SDS011;36320;48.860;2.380;2022-11-15T01:17:43;5.65;;;0.90;;
4208;SDS011;36320;48.860;2.380;2022-11-15T01:20:09;8.20;;;1.20;;
4208;SDS011;36320;48.860;2.380;2022-11-15T01:22:35;6.50;;;1.00;;
4208;SDS011;36320;48.860;2.380;2022-11-15T01:25:01;5.70;;;0.90;;
4208;SDS011;36320;48.860;2.380;2022-11-15T01:27:27;7.20;;;1.00;;
4208;SDS011;36320;48.860;2.380;2022-11-15T01:29:53;6.30;;;1.10;;
4208;SDS011;36320;48.860;2.380;2022-11-15T01:32:19;8.57;;;1.07;;
4208;SDS011;36320;48.860;2.380;2022-11-15T01:34:45;5.80;;;0.90;;
4208;SDS011;36320;48.860;2.380;2022-11-15T01:37:11;6.35;;;1.00;;
4208;SDS011;36320;48.860;2.380;2022-11-15T01:39:37;7.20;;;1.20;;
4208;SDS011;36320;48.860;2.380;2022-11-15T01:42:03;6.30;;;1.10;;
4208;SDS011;36320;48.860;2.380;2022-11-15T01:47:09;6.60;;;1.30;;
4208;SDS011;36320;48.860;2.380;2022-11-15T01:49:37;5.70;;;0.90;;
4208;SDS011;36320;48.860;2.380;2022-11-15T01:52:05;5.80;;;0.90;;
4208;SDS011;36320;48.860;2.380;2022-11-15T01:54:31;5.80;;;1.00;;
4208;SDS011;36320;48.860;2.380;2022-11-15T01:57:04;5.80;;;0.90;;
4208;SDS011;36320;48.860;2.380;2022-11-15T01:59:31;9.20;;;1.10;;
4208;SDS011;36320;48.860;2.380;2022-11-15T02:01:58;5.70;;;1.00;;
4208;SDS011;36320;48.860;2.380;2022-11-15T02:04:24;6.07;;;1.00;;
4208;SDS011;36320;48.860;2.380;2022-11-15T02:06:52;5.90;;;1.00;;
4208;SDS011;36320;48.860;2.380;2022-11-15T02:09:18;6.53;;;0.93;;
4208;SDS011;36320;48.860;2.380;2022-11-15T02:11:44;5.50;;;0.80;;
4208;SDS011;36320;48.860;2.380;2022-11-15T02:14:11;5.80;;;0.80;;
4208;SDS011;36320;48.860;2.380;2022-11-15T02:21:39;5.70;;;0.90;;
4208;SDS011;36320;48.860;2.380;2022-11-15T02:24:32;7.40;;;1.20;;
4208;SDS011;36320;48.860;2.380;2022-11-15T02:27:03;6.20;;;1.10;;
4208;SDS011;36320;48.860;2.380;2022-11-15T02:32:06;6.00;;;1.00;;
4208;SDS011;36320;48.860;2.380;2022-11-15T02:34:42;6.20;;;1.20;;
4208;SDS011;36320;48.860;2.380;2022-11-15T02:39:53;6.20;;;0.90;;
4208;SDS011;36320;48.860;2.380;2022-11-15T02:42:26;5.70;;;0.90;;
4208;SDS011;36320;48.860;2.380;2022-11-15T02:45:15;9.60;;;1.60;;
4208;SDS011;36320;48.860;2.380;2022-11-15T02:47:42;6.00;;;1.00;;
4208;SDS011;36320;48.860;2.380;2022-11-15T02:50:12;5.70;;;1.00;;
4208;SDS011;36320;48.860;2.380;2022-11-15T02:52:39;6.40;;;1.15;;
4208;SDS011;36320;48.860;2.380;2022-11-15T02:55:05;5.68;;;0.93;;
4208;SDS011;36320;48.860;2.380;2022-11-15T03:02:42;6.25;;;0.90;;
4208;SDS011;36320;48.860;2.380;2022-11-15T03:07:40;6.20;;;0.90;;
4208;SDS011;36320;48.860;2.380;2022-11-15T03:10:12;6.45;;;1.20;;
4208;SDS011;36320;48.860;2.380;2022-11-15T03:15:21;5.70;;;1.00;;
4208;SDS011;36320;48.860;2.380;2022-11-15T03:20:35;6.00;;;1.10;;
4208;SDS011;36320;48.860;2.380;2022-11-15T03:23:04;11.27;;;1.20;;
4208;SDS011;36320;48.860;2.380;2022-11-15T03:25:31;6.00;;;1.00;;
4208;SDS011;36320;48.860;2.380;2022-11-15T03:27:59;9.70;;;1.00;;
4208;SDS011;36320;48.860;2.380;2022-11-15T03:30:28;5.63;;;1.00;;
4208;SDS011;36320;48.860;2.380;2022-11-15T03:32:58;5.80;;;0.90;;
4208;SDS011;36320;48.860;2.380;2022-11-15T03:35:27;5.70;;;0.80;;
4208;SDS011;36320;48.860;2.380;2022-11-15T03:40:53;5.60;;;0.90;;
4208;SDS011;36320;48.860;2.380;2022-11-15T03:43:30;6.70;;;1.10;;
4208;SDS011;36320;48.860;2.380;2022-11-15T03:46:44;7.20;;;1.30;;
4208;SDS011;36320;48.860;2.380;2022-11-15T03:49:12;7.00;;;1.20;;
4208;SDS011;36320;48.860;2.380;2022-11-15T03:51:49;6.40;;;1.03;;
4208;SDS011;36320;48.860;2.380;2022-11-15T03:54:15;5.60;;;0.90;;
4208;SDS011;36320;48.860;2.380;2022-11-15T03:56:41;6.00;;;1.08;;
4208;SDS011;36320;48.860;2.380;2022-11-15T03:59:06;5.60;;;0.88;;
4208;SDS011;36320;48.860;2.380;2022-11-15T04:01:32;8.77;;;1.03;;
4208;SDS011;36320;48.860;2.380;2022-11-15T04:03:58;5.65;;;0.80;;
4208;SDS011;36320;48.860;2.380;2022-11-15T04:06:23;9.60;;;0.90;;
4208;SDS011;36320;48.860;2.380;2022-11-15T04:08:49;16.10;;;1.40;;
4208;SDS011;36320;48.860;2.380;2022-11-15T04:11:14;5.60;;;0.90;;
4208;SDS011;36320;48.860;2.380;2022-11-15T04:13:40;5.73;;;0.90;;
4208;SDS011;36320;48.860;2.380;2022-11-15T04:16:06;6.50;;;1.20;;
4208;SDS011;36320;48.860;2.380;2022-11-15T04:18:31;13.90;;;1.20;;
4208;SDS011;36320;48.860;2.380;2022-11-15T04:20:57;8.97;;;1.17;;
4208;SDS011;36320;48.860;2.380;2022-11-15T04:23:41;6.80;;;1.00;;
4208;SDS011;36320;48.860;2.380;2022-11-15T04:26:25;6.70;;;1.00;;
4208;SDS011;36320;48.860;2.380;2022-11-15T04:28:51;6.10;;;1.00;;
4208;SDS011;36320;48.860;2.380;2022-11-15T04:31:35;5.90;;;0.90;;
4208;SDS011;36320;48.860;2.380;2022-11-15T04:34:01;6.20;;;1.00;;
4208;SDS011;36320;48.860;2.380;2022-11-15T04:36:26;5.50;;;0.90;;
4208;SDS011;36320;48.860;2.380;2022-11-15T04:39:11;6.30;;;1.00;;
4208;SDS011;36320;48.860;2.380;2022-11-15T04:41:36;5.60;;;0.90;;
4208;SDS011;36320;48.860;2.380;2022-11-15T04:44:02;5.70;;;0.90;;
4208;SDS011;36320;48.860;2.380;2022-11-15T04:46:27;5.80;;;1.00;;
4208;SDS011;36320;48.860;2.380;2022-11-15T04:48:53;8.10;;;1.10;;
4208;SDS011;36320;48.860;2.380;2022-11-15T04:51:20;6.10;;;1.00;;
4208;SDS011;36320;48.860;2.380;2022-11-15T04:53:45;5.50;;;0.80;;
4208;SDS011;36320;48.860;2.380;2022-11-15T04:56:11;5.60;;;0.90;;
4208;SDS011;36320;48.860;2.380;2022-11-15T04:58:37;6.57;;;1.15;;
4208;SDS011;36320;48.860;2.380;2022-11-15T05:01:12;6.40;;;1.10;;
4208;SDS011;36320;48.860;2.380;2022-11-15T05:03:40;9.60;;;1.08;;
4208;SDS011;36320;48.860;2.380;2022-11-15T05:06:28;5.60;;;0.90;;
4208;SDS011;36320;48.860;2.380;2022-11-15T05:08:54;5.80;;;1.10;;
4208;SDS011;36320;48.860;2.380;2022-11-15T05:11:20;6.00;;;1.10;;
4208;SDS011;36320;48.860;2.380;2022-11-15T05:13:46;5.60;;;0.90;;
4208;SDS011;36320;48.860;2.380;2022-11-15T05:16:12;5.90;;;1.00;;
4208;SDS011;36320;48.860;2.380;2022-11-15T05:18:38;5.80;;;0.97;;
4208;SDS011;36320;48.860;2.380;2022-11-15T05:21:07;6.60;;;1.10;;
4208;SDS011;36320;48.860;2.380;2022-11-15T05:23:35;6.47;;;1.05;;
4208;SDS011;36320;48.860;2.380;2022-11-15T05:26:02;6.10;;;1.00;;
4208;SDS011;36320;48.860;2.380;2022-11-15T05:28:29;6.20;;;1.10;;
4208;SDS011;36320;48.860;2.380;2022-11-15T05:33:51;5.90;;;1.00;;
4208;SDS011;36320;48.860;2.380;2022-11-15T05:36:35;6.90;;;1.00;;
4208;SDS011;36320;48.860;2.380;2022-11-15T05:39:03;8.30;;;1.10;;
4208;SDS011;36320;48.860;2.380;2022-11-15T05:41:40;7.20;;;1.20;;
4208;SDS011;36320;48.860;2.380;2022-11-15T05:44:11;11.70;;;1.30;;
4208;SDS011;36320;48.860;2.380;2022-11-15T05:46:39;6.60;;;1.33;;
4208;SDS011;36320;48.860;2.380;2022-11-15T05:49:07;6.40;;;1.42;;
4208;SDS011;36320;48.860;2.380;2022-11-15T05:51:36;5.93;;;0.90;;
4208;SDS011;36320;48.860;2.380;2022-11-15T05:54:02;6.00;;;1.10;;
4208;SDS011;36320;48.860;2.380;2022-11-15T05:56:28;6.60;;;1.10;;
4208;SDS011;36320;48.860;2.380;2022-11-15T05:58:55;5.60;;;0.90;;
4208;SDS011;36320;48.860;2.380;2022-11-15T06:01:22;6.25;;;1.15;;
4208;SDS011;36320;48.860;2.380;2022-11-15T06:03:49;6.00;;;1.00;;
4208;SDS011;36320;48.860;2.380;2022-11-15T06:06:15;7.68;;;1.10;;
4208;SDS011;36320;48.860;2.380;2022-11-15T06:08:40;6.97;;;1.37;;
4208;SDS011;36320;48.860;2.380;2022-11-15T06:11:06;8.10;;;1.10;;
4208;SDS011;36320;48.860;2.380;2022-11-15T06:13:33;5.50;;;0.80;;
4208;SDS011;36320;48.860;2.380;2022-11-15T06:15:59;13.80;;;1.10;;
4208;SDS011;36320;48.860;2.380;2022-11-15T06:18:25;6.60;;;1.30;;
4208;SDS011;36320;48.860;2.380;2022-11-15T06:20:58;5.50;;;0.80;;
4208;SDS011;36320;48.860;2.380;2022-11-15T06:23:33;8.35;;;1.40;;
4208;SDS011;36320;48.860;2.380;2022-11-15T07:26:03;10.68;;;1.60;;
4208;SDS011;36320;48.860;2.380;2022-11-15T07:33:39;10.68;;;1.85;;
4208;SDS011;36320;48.860;2.380;2022-11-15T07:57:08;8.90;;;1.80;;
4208;SDS011;36320;48.860;2.380;2022-11-15T07:59:36;17.70;;;2.45;;
4208;SDS011;36320;48.860;2.380;2022-11-15T08:23:25;10.93;;;1.80;;
4208;SDS011;36320;48.860;2.380;2022-11-15T08:28:26;7.93;;;1.90;;
4208;SDS011;36320;48.860;2.380;2022-11-15T08:36:03;7.93;;;1.90;;
4208;SDS011;36320;48.860;2.380;2022-11-15T08:46:55;6.57;;;1.53;;
4208;SDS011;36320;48.860;2.380;2022-11-15T08:49:34;8.77;;;1.60;;
4208;SDS011;36320;48.860;2.380;2022-11-15T08:58:30;7.18;;;1.70;;
4208;SDS011;36320;48.860;2.380;2022-11-15T09:01:14;7.78;;;1.58;;
4208;SDS011;36320;48.860;2.380;2022-11-15T09:03:41;6.05;;;1.30;;
4208;SDS011;36320;48.860;2.380;2022-11-15T09:06:07;8.87;;;1.53;;
4208;SDS011;36320;48.860;2.380;2022-11-15T09:08:34;7.07;;;1.25;;
4208;SDS011;36320;48.860;2.380;2022-11-15T09:11:16;9.60;;;1.60;;
4208;SDS011;36320;48.860;2.380;2022-11-15T09:13:47;8.82;;;1.40;;
4208;SDS011;36320;48.860;2.380;2022-11-15T09:16:12;7.13;;;1.70;;
4208;SDS011;36320;48.860;2.380;2022-11-15T09:18:40;6.95;;;1.40;;
4208;SDS011;36320;48.860;2.380;2022-11-15T09:21:37;6.80;;;1.20;;
4208;SDS011;36320;48.860;2.380;2022-11-15T09:24:04;7.00;;;1.40;;
4208;SDS011;36320;48.860;2.380;2022-11-15T09:26:30;10.65;;;1.63;;
4208;SDS011;36320;48.860;2.380;2022-11-15T09:28:56;10.73;;;1.95;;
4208;SDS011;36320;48.860;2.380;2022-11-15T09:31:25;7.70;;;1.80;;
4208;SDS011;36320;48.860;2.380;2022-11-15T09:33:54;8.30;;;1.60;;
4208;SDS011;36320;48.860;2.380;2022-11-15T09:36:21;7.60;;;1.60;;
4208;SDS011;36320;48.860;2.380;2022-11-15T09:38:47;6.88;;;1.50;;
4208;SDS011;36320;48.860;2.380;2022-11-15T09:46:38;12.93;;;1.90;;
4208;SDS011;36320;48.860;2.380;2022-11-15T09:49:25;15.63;;;1.77;;
4208;SDS011;36320;48.860;2.380;2022-11-15T09:51:53;7.72;;;1.58;;
4208;SDS011;36320;48.860;2.380;2022-11-15T10:05:41;12.38;;;1.77;;
4208;SDS011;36320;48.860;2.380;2022-11-15T10:11:29;8.82;;;1.70;;
4208;SDS011;36320;48.860;2.380;2022-11-15T10:13:59;7.30;;;1.30;;
4208;SDS011;36320;48.860;2.380;2022-11-15T10:16:53;9.25;;;1.90;;
4208;SDS011;36320;48.860;2.380;2022-11-15T10:19:24;8.50;;;1.85;;
4208;SDS011;36320;48.860;2.380;2022-11-15T10:22:16;7.35;;;1.98;;
4208;SDS011;36320;48.860;2.380;2022-11-15T10:24:47;6.80;;;1.30;;
4208;SDS011;36320;48.860;2.380;2022-11-15T10:27:14;11.55;;;3.40;;
4208;SDS011;36320;48.860;2.380;2022-11-15T10:29:43;7.53;;;1.60;;
4208;SDS011;36320;48.860;2.380;2022-11-15T10:32:16;9.52;;;1.95;;
4208;SDS011;36320;48.860;2.380;2022-11-15T10:34:43;8.85;;;1.83;;
4208;SDS011;36320;48.860;2.380;2022-11-15T10:37:09;8.77;;;2.45;;
4208;SDS011;36320;48.860;2.380;2022-11-15T10:39:35;9.68;;;1.67;;
4208;SDS011;36320;48.860;2.380;2022-11-15T10:44:55;9.33;;;1.60;;
4208;SDS011;36320;48.860;2.380;2022-11-15T10:47:22;7.53;;;1.52;;
4208;SDS011;36320;48.860;2.380;2022-11-15T10:49:57;7.50;;;1.50;;
4208;SDS011;36320;48.860;2.380;2022-11-15T10:52:24;7.72;;;1.90;;
4208;SDS011;36320;48.860;2.380;2022-11-15T10:55:25;9.00;;;1.70;;
4208;SDS011;36320;48.860;2.380;2022-11-15T10:58:02;9.02;;;1.80;;
4208;SDS011;36320;48.860;2.380;2022-11-15T11:00:35;9.90;;;1.60;;
4208;SDS011;36320;48.860;2.380;2022-11-15T11:06:04;10.23;;;1.92;;
4208;SDS011;36320;48.860;2.380;2022-11-15T11:08:36;7.75;;;1.70;;
4208;SDS011;36320;48.860;2.380;2022-11-15T11:11:03;7.38;;;1.70;;
4208;SDS011;36320;48.860;2.380;2022-11-15T11:13:34;8.23;;;1.58;;
4208;SDS011;36320;48.860;2.380;2022-11-15T11:21:10;8.00;;;1.80;;
4208;SDS011;36320;48.860;2.380;2022-11-15T11:23:48;10.40;;;1.80;;
4208;SDS011;36320;48.860;2.380;2022-11-15T11:29:37;11.02;;;1.80;;
4208;SDS011;36320;48.860;2.380;2022-11-15T11:41:00;8.60;;;2.00;;
4208;SDS011;36320;48.860;2.380;2022-11-15T11:49:15;13.30;;;1.90;;
4208;SDS011;36320;48.860;2.380;2022-11-15T11:57:38;8.65;;;2.00;;
4208;SDS011;36320;48.860;2.380;2022-11-15T12:00:14;10.30;;;2.20;;
4208;SDS011;36320;48.860;2.380;2022-11-15T12:05:44;11.07;;;2.25;;
4208;SDS011;36320;48.860;2.380;2022-11-15T12:11:14;11.65;;;1.90;;
4208;SDS011;36320;48.860;2.380;2022-11-15T12:14:05;10.23;;;1.90;;
4208;SDS011;36320;48.860;2.380;2022-11-15T12:16:42;14.27;;;2.42;;
4208;SDS011;36320;48.860;2.380;2022-11-15T12:19:08;9.93;;;1.83;;
4208;SDS011;36320;48.860;2.380;2022-11-15T12:24:39;11.55;;;2.58;;
4208;SDS011;36320;48.860;2.380;2022-11-15T12:27:25;8.07;;;2.30;;
4208;SDS011;36320;48.860;2.380;2022-11-15T12:30:04;9.18;;;2.30;;
4208;SDS011;36320;48.860;2.380;2022-11-15T12:33:02;9.23;;;2.40;;
4208;SDS011;36320;48.860;2.380;2022-11-15T12:35:57;9.27;;;2.22;;
4208;SDS011;36320;48.860;2.380;2022-11-15T12:41:28;14.02;;;2.20;;
4208;SDS011;36320;48.860;2.380;2022-11-15T12:43:56;9.43;;;2.40;;
4208;SDS011;36320;48.860;2.380;2022-11-15T12:47:01;11.80;;;2.60;;
4208;SDS011;36320;48.860;2.380;2022-11-15T13:02:21;7.88;;;1.80;;
4208;SDS011;36320;48.860;2.380;2022-11-15T13:04:48;7.65;;;2.22;;
4208;SDS011;36320;48.860;2.380;2022-11-15T13:07:54;9.80;;;2.67;;
4208;SDS011;36320;48.860;2.380;2022-11-15T13:31:24;10.00;;;2.20;;
4208;SDS011;36320;48.860;2.380;2022-11-15T13:34:16;14.23;;;2.50;;
4208;SDS011;36320;48.860;2.380;2022-11-15T13:36:50;7.80;;;1.90;;
4208;SDS011;36320;48.860;2.380;2022-11-15T13:41:58;10.07;;;1.90;;
4208;SDS011;36320;48.860;2.380;2022-11-15T13:44:29;7.82;;;1.90;;
4208;SDS011;36320;48.860;2.380;2022-11-15T13:47:05;11.02;;;1.85;;
4208;SDS011;36320;48.860;2.380;2022-11-15T13:49:35;8.35;;;2.20;;
4208;SDS011;36320;48.860;2.380;2022-11-15T13:52:04;8.13;;;2.20;;
4208;SDS011;36320;48.860;2.380;2022-11-15T13:54:38;7.30;;;1.80;;
4208;SDS011;36320;48.860;2.380;2022-11-15T13:57:15;8.02;;;2.10;;
4208;SDS011;36320;48.860;2.380;2022-11-15T13:59:50;9.07;;;2.20;;
4208;SDS011;36320;48.860;2.380;2022-11-15T14:02:19;8.52;;;1.95;;
4208;SDS011;36320;48.860;2.380;2022-11-15T14:04:55;10.63;;;2.00;;
4208;SDS011;36320;48.860;2.380;2022-11-15T14:07:56;9.00;;;2.25;;
4208;SDS011;36320;48.860;2.380;2022-11-15T14:10:45;8.40;;;1.90;;
4208;SDS011;36320;48.860;2.380;2022-11-15T14:15:54;10.93;;;2.30;;
4208;SDS011;36320;48.860;2.380;2022-11-15T14:18:41;10.10;;;2.50;;
4208;SDS011;36320;48.860;2.380;2022-11-15T14:21:17;12.00;;;2.20;;
4208;SDS011;36320;48.860;2.380;2022-11-15T14:23:44;8.80;;;2.20;;
4208;SDS011;36320;48.860;2.380;2022-11-15T14:26:32;10.10;;;2.50;;
4208;SDS011;36320;48.860;2.380;2022-11-15T14:32:16;10.20;;;2.30;;
4208;SDS011;36320;48.860;2.380;2022-11-15T14:34:42;8.37;;;2.10;;
4208;SDS011;36320;48.860;2.380;2022-11-15T14:37:20;10.30;;;2.63;;
4208;SDS011;36320;48.860;2.380;2022-11-15T14:39:55;10.02;;;2.22;;
4208;SDS011;36320;48.860;2.380;2022-11-15T14:42:22;8.90;;;1.90;;
4208;SDS011;36320;48.860;2.380;2022-11-15T14:44:48;10.47;;;2.70;;
4208;SDS011;36320;48.860;2.380;2022-11-15T14:47:15;8.27;;;1.93;;
4208;SDS011;36320;48.860;2.380;2022-11-15T14:49:41;9.30;;;2.50;;
4208;SDS011;36320;48.860;2.380;2022-11-15T14:54:54;11.40;;;2.90;;
4208;SDS011;36320;48.860;2.380;2022-11-15T14:57:36;7.33;;;1.80;;
4208;SDS011;36320;48.860;2.380;2022-11-15T15:00:03;6.85;;;1.60;;
4208;SDS011;36320;48.860;2.380;2022-11-15T15:02:30;7.97;;;2.22;;
4208;SDS011;36320;48.860;2.380;2022-11-15T15:04:56;8.10;;;1.80;;
4208;SDS011;36320;48.860;2.380;2022-11-15T15:07:26;8.50;;;1.50;;
4208;SDS011;36320;48.860;2.380;2022-11-15T15:09:51;8.35;;;2.10;;
4208;SDS011;36320;48.860;2.380;2022-11-15T15:12:23;9.50;;;2.60;;
4208;SDS011;36320;48.860;2.380;2022-11-15T15:14:52;8.43;;;1.80;;
4208;SDS011;36320;48.860;2.380;2022-11-15T15:17:17;7.07;;;1.70;;
4208;SDS011;36320;48.860;2.380;2022-11-15T15:19:43;7.77;;;2.00;;
4208;SDS011;36320;48.860;2.380;2022-11-15T15:22:14;7.88;;;1.88;;
4208;SDS011;36320;48.860;2.380;2022-11-15T15:24:43;6.93;;;1.67;;
4208;SDS011;36320;48.860;2.380;2022-11-15T15:27:11;10.20;;;2.50;;
4208;SDS011;36320;48.860;2.380;2022-11-15T15:29:41;7.50;;;1.80;;
4208;SDS011;36320;48.860;2.380;2022-11-15T15:32:08;14.25;;;2.65;;
4208;SDS011;36320;48.860;2.380;2022-11-15T15:34:43;7.07;;;2.00;;
4208;SDS011;36320;48.860;2.380;2022-11-15T15:37:25;8.68;;;2.00;;
4208;SDS011;36320;48.860;2.380;2022-11-15T15:40:08;12.17;;;2.53;;
4208;SDS011;36320;48.860;2.380;2022-11-15T15:42:43;13.10;;;2.13;;
4208;SDS011;36320;48.860;2.380;2022-11-15T15:45:10;7.63;;;1.73;;
4208;SDS011;36320;48.860;2.380;2022-11-15T15:47:37;9.23;;;2.63;;
4208;SDS011;36320;48.860;2.380;2022-11-15T15:50:25;8.38;;;2.50;;
4208;SDS011;36320;48.860;2.380;2022-11-15T15:52:57;8.80;;;2.60;;
4208;SDS011;36320;48.860;2.380;2022-11-15T15:55:24;7.40;;;2.10;;
4208;SDS011;36320;48.860;2.380;2022-11-15T15:57:51;9.23;;;2.10;;
4208;SDS011;36320;48.860;2.380;2022-11-15T16:00:17;7.90;;;1.90;;
4208;SDS011;36320;48.860;2.380;2022-11-15T16:02:45;10.52;;;2.50;;
4208;SDS011;36320;48.860;2.380;2022-11-15T16:05:11;7.57;;;1.60;;
4208;SDS011;36320;48.860;2.380;2022-11-15T16:07:37;8.20;;;1.80;;
4208;SDS011;36320;48.860;2.380;2022-11-15T16:12:59;8.82;;;2.60;;
4208;SDS011;36320;48.860;2.380;2022-11-15T16:15:29;9.32;;;2.45;;
4208;SDS011;36320;48.860;2.380;2022-11-15T16:17:57;9.10;;;2.30;;
4208;SDS011;36320;48.860;2.380;2022-11-15T16:20:31;17.33;;;3.17;;
4208;SDS011;36320;48.860;2.380;2022-11-15T16:23:08;10.82;;;3.20;;
4208;SDS011;36320;48.860;2.380;2022-11-15T16:28:31;8.40;;;2.10;;
4208;SDS011;36320;48.860;2.380;2022-11-15T16:31:07;7.68;;;2.15;;
4208;SDS011;36320;48.860;2.380;2022-11-15T16:33:34;13.17;;;2.73;;
4208;SDS011;36320;48.860;2.380;2022-11-15T16:36:01;8.37;;;2.60;;
4208;SDS011;36320;48.860;2.380;2022-11-15T16:38:29;10.40;;;2.67;;
4208;SDS011;36320;48.860;2.380;2022-11-15T16:40:55;12.10;;;3.92;;
4208;SDS011;36320;48.860;2.380;2022-11-15T16:43:21;9.50;;;2.60;;
4208;SDS011;36320;48.860;2.380;2022-11-15T16:45:47;8.60;;;2.30;;
4208;SDS011;36320;48.860;2.380;2022-11-15T16:48:33;12.27;;;2.83;;
4208;SDS011;36320;48.860;2.380;2022-11-15T16:50:59;8.30;;;2.13;;
4208;SDS011;36320;48.860;2.380;2022-11-15T16:53:28;8.20;;;2.40;;
4208;SDS011;36320;48.860;2.380;2022-11-15T16:55:55;9.50;;;2.30;;
4208;SDS011;36320;48.860;2.380;2022-11-15T16:58:22;10.65;;;2.80;;
4208;SDS011;36320;48.860;2.380;2022-11-15T17:00:56;10.00;;;2.70;;
4208;SDS011;36320;48.860;2.380;2022-11-15T17:03:22;8.68;;;2.33;;
4208;SDS011;36320;48.860;2.380;2022-11-15T17:05:49;8.20;;;2.30;;
4208;SDS011;36320;48.860;2.380;2022-11-15T17:08:15;8.80;;;2.38;;
4208;SDS011;36320;48.860;2.380;2022-11-15T17:10:42;13.18;;;2.38;;
4208;SDS011;36320;48.860;2.380;2022-11-15T17:13:11;10.38;;;2.30;;
4208;SDS011;36320;48.860;2.380;2022-11-15T17:15:38;8.57;;;2.10;;
4208;SDS011;36320;48.860;2.380;2022-11-15T17:18:04;7.82;;;1.80;;
4208;SDS011;36320;48.860;2.380;2022-11-15T17:20:31;7.97;;;1.93;;
4208;SDS011;36320;48.860;2.380;2022-11-15T17:22:56;8.00;;;2.33;;
4208;SDS011;36320;48.860;2.380;2022-11-15T17:25:27;8.65;;;2.40;;
4208;SDS011;36320;48.860;2.380;2022-11-15T17:27:54;10.30;;;2.67;;
4208;SDS011;36320;48.860;2.380;2022-11-15T17:30:21;12.07;;;2.65;;
4208;SDS011;36320;48.860;2.380;2022-11-15T17:32:51;10.65;;;2.70;;
4208;SDS011;36320;48.860;2.380;2022-11-15T17:35:17;9.23;;;2.60;;
4208;SDS011;36320;48.860;2.380;2022-11-15T17:37:46;7.72;;;2.28;;
4208;SDS011;36320;48.860;2.380;2022-11-15T17:40:12;8.25;;;2.22;;
4208;SDS011;36320;48.860;2.380;2022-11-15T17:42:42;8.52;;;2.10;;
4208;SDS011;36320;48.860;2.380;2022-11-15T17:45:09;9.00;;;2.80;;
4208;SDS011;36320;48.860;2.380;2022-11-15T17:47:37;20.85;;;2.95;;
4208;SDS011;36320;48.860;2.380;2022-11-15T17:50:02;11.43;;;2.40;;
4208;SDS011;36320;48.860;2.380;2022-11-15T17:52:29;14.65;;;5.00;;
4208;SDS011;36320;48.860;2.380;2022-11-15T17:54:54;9.90;;;2.50;;
4208;SDS011;36320;48.860;2.380;2022-11-15T17:57:20;9.15;;;2.50;;
4208;SDS011;36320;48.860;2.380;2022-11-15T17:59:46;10.63;;;3.17;;
4208;SDS011;36320;48.860;2.380;2022-11-15T18:02:14;10.65;;;2.67;;
4208;SDS011;36320;48.860;2.380;2022-11-15T18:04:40;9.00;;;2.67;;
4208;SDS011;36320;48.860;2.380;2022-11-15T18:07:05;10.05;;;3.40;;
4208;SDS011;36320;48.860;2.380;2022-11-15T18:09:32;8.53;;;2.33;;
4208;SDS011;36320;48.860;2.380;2022-11-15T18:11:58;15.93;;;3.10;;
4208;SDS011;36320;48.860;2.380;2022-11-15T18:14:26;8.90;;;2.30;;
4208;SDS011;36320;48.860;2.380;2022-11-15T18:16:53;10.13;;;2.33;;
4208;SDS011;36320;48.860;2.380;2022-11-15T18:19:19;8.55;;;2.30;;
4208;SDS011;36320;48.860;2.380;2022-11-15T18:21:44;7.87;;;2.30;;
4208;SDS011;36320;48.860;2.380;2022-11-15T18:24:27;13.55;;;3.40;;
4208;SDS011;36320;48.860;2.380;2022-11-15T18:26:57;8.48;;;2.08;;
4208;SDS011;36320;48.860;2.380;2022-11-15T18:29:24;9.88;;;2.63;;
4208;SDS011;36320;48.860;2.380;2022-11-15T18:47:23;12.50;;;3.00;;
4208;SDS011;36320;48.860;2.380;2022-11-15T18:49:58;9.60;;;2.50;;
4208;SDS011;36320;48.860;2.380;2022-11-15T18:52:24;8.55;;;2.53;;
4208;SDS011;36320;48.860;2.380;2022-11-15T18:54:52;10.73;;;3.00;;
4208;SDS011;36320;48.860;2.380;2022-11-15T18:57:19;9.70;;;2.30;;
4208;SDS011;36320;48.860;2.380;2022-11-15T18:59:45;10.00;;;2.22;;
4208;SDS011;36320;48.860;2.380;2022-11-15T19:02:11;9.65;;;2.35;;
4208;SDS011;36320;48.860;2.380;2022-11-15T19:04:38;8.15;;;2.33;;
4208;SDS011;36320;48.860;2.380;2022-11-15T19:07:03;9.33;;;2.40;;
4208;SDS011;36320;48.860;2.380;2022-11-15T19:09:29;7.70;;;1.90;;
4208;SDS011;36320;48.860;2.380;2022-11-15T19:11:56;8.00;;;2.15;;
4208;SDS011;36320;48.860;2.380;2022-11-15T19:14:24;9.57;;;2.80;;
4208;SDS011;36320;48.860;2.380;2022-11-15T19:16:51;9.30;;;2.10;;
4208;SDS011;36320;48.860;2.380;2022-11-15T19:19:20;9.57;;;2.40;;
4208;SDS011;36320;48.860;2.380;2022-11-15T19:21:48;9.45;;;2.10;;
4208;SDS011;36320;48.860;2.380;2022-11-15T19:24:14;12.50;;;2.40;;
4208;SDS011;36320;48.860;2.380;2022-11-15T19:26:40;8.80;;;2.10;;
4208;SDS011;36320;48.860;2.380;2022-11-15T19:29:06;12.25;;;2.30;;
4208;SDS011;36320;48.860;2.380;2022-11-15T19:31:37;8.23;;;2.35;;
4208;SDS011;36320;48.860;2.380;2022-11-15T19:34:07;9.40;;;2.30;;
4208;SDS011;36320;48.860;2.380;2022-11-15T19:36:35;8.88;;;2.05;;
4208;SDS011;36320;48.860;2.380;2022-11-15T19:39:03;11.60;;;2.67;;
4208;SDS011;36320;48.860;2.380;2022-11-15T19:41:34;12.23;;;2.45;;
4208;SDS011;36320;48.860;2.380;2022-11-15T19:44:01;9.20;;;2.70;;
4208;SDS011;36320;48.860;2.380;2022-11-15T19:49:09;10.65;;;2.17;;
4208;SDS011;36320;48.860;2.380;2022-11-15T19:51:54;8.45;;;2.50;;
4208;SDS011;36320;48.860;2.380;2022-11-15T19:54:21;9.10;;;2.10;;
4208;SDS011;36320;48.860;2.380;2022-11-15T19:56:51;12.40;;;2.00;;
4208;SDS011;36320;48.860;2.380;2022-11-15T19:59:17;8.15;;;1.85;;
4208;SDS011;36320;48.860;2.380;2022-11-15T20:01:43;13.00;;;2.00;;
4208;SDS011;36320;48.860;2.380;2022-11-15T20:04:09;7.90;;;1.90;;
4208;SDS011;36320;48.860;2.380;2022-11-15T20:06:39;7.47;;;1.90;;
4208;SDS011;36320;48.860;2.380;2022-11-15T20:09:12;10.13;;;2.28;;
4208;SDS011;36320;48.860;2.380;2022-11-15T20:11:40;11.93;;;2.00;;
4208;SDS011;36320;48.860;2.380;2022-11-15T20:14:10;9.63;;;2.00;;